createdAt,value
2022-09-23T00:02:10.464Z,12.42
2022-09-23T00:04:38.748Z,12.26
2022-09-23T00:07:06.765Z,12.66
2022-09-23T00:09:34.798Z,12.50
2022-09-23T00:12:08.846Z,12.30
2022-09-23T00:14:42.050Z,12.29
2022-09-23T00:17:11.944Z,11.92
2022-09-23T00:19:40.692Z,12.36
2022-09-23T00:22:08.894Z,10.87
2022-09-23T00:24:36.956Z,12.40
2022-09-23T00:27:04.785Z,12.46
2022-09-23T00:29:33.711Z,12.34
2022-09-23T00:32:04.937Z,12.25
2022-09-23T00:34:33.029Z,12.25
2022-09-23T00:37:00.991Z,11.93
2022-09-23T00:39:28.550Z,12.04
2022-09-23T00:41:56.465Z,12.34
2022-09-23T00:44:41.689Z,12.46
2022-09-23T00:47:12.646Z,12.04
2022-09-23T00:49:42.785Z,11.81
2022-09-23T00:52:11.215Z,11.83
2022-09-23T00:54:38.851Z,11.76
2022-09-23T00:57:07.029Z,12.04
2022-09-23T00:59:38.807Z,11.95
2022-09-23T01:02:06.769Z,11.83
2022-09-23T01:04:36.201Z,11.83
2022-09-23T01:07:06.278Z,11.88
2022-09-23T01:09:36.890Z,11.71
2022-09-23T01:12:07.287Z,11.28
2022-09-23T01:14:37.688Z,11.52
2022-09-23T01:17:06.166Z,11.58
2022-09-23T01:19:48.735Z,11.56
2022-09-23T01:22:19.188Z,11.15
2022-09-23T01:24:48.204Z,11.00
2022-09-23T01:27:27.781Z,10.80
2022-09-23T01:30:19.405Z,10.91
2022-09-23T01:32:54.921Z,10.97
2022-09-23T01:35:27.389Z,10.89
2022-09-23T01:37:57.573Z,10.64
2022-09-23T01:40:29.726Z,10.73
2022-09-23T01:42:58.461Z,10.63
2022-09-23T01:45:27.082Z,10.63
2022-09-23T01:47:57.257Z,10.61
2022-09-23T01:50:43.963Z,10.52
2022-09-23T01:53:13.404Z,10.85
2022-09-23T01:55:41.466Z,10.83
2022-09-23T01:58:09.612Z,10.93
2022-09-23T02:00:43.104Z,11.33
2022-09-23T02:03:13.617Z,11.15
2022-09-23T02:05:43.563Z,11.04
2022-09-23T02:08:11.955Z,11.06
2022-09-23T02:10:42.119Z,10.90
2022-09-23T02:13:13.852Z,10.92
2022-09-23T02:15:45.226Z,11.09
2022-09-23T02:18:15.462Z,10.93
2022-09-23T02:20:44.117Z,10.62
2022-09-23T02:23:13.135Z,10.70
2022-09-23T02:25:41.338Z,10.75
2022-09-23T02:28:10.721Z,10.63
2022-09-23T02:30:39.956Z,10.42
2022-09-23T02:33:08.122Z,10.58
2022-09-23T02:35:37.977Z,10.58
2022-09-23T02:38:09.019Z,10.68
2022-09-23T02:40:38.126Z,10.41
2022-09-23T02:43:07.185Z,10.60
2022-09-23T02:45:36.098Z,10.72
2022-09-23T02:48:04.665Z,10.63
2022-09-23T02:50:35.006Z,10.80
2022-09-23T02:53:04.754Z,11.06
2022-09-23T02:55:32.751Z,10.86
2022-09-23T02:58:01.492Z,10.39
2022-09-23T03:00:31.586Z,10.06
2022-09-23T03:03:06.639Z,10.14
2022-09-23T03:05:37.723Z,10.31
2022-09-23T03:08:18.362Z,10.44
2022-09-23T03:10:47.730Z,10.33
2022-09-23T03:13:22.195Z,10.07
2022-09-23T03:15:57.590Z,10.37
2022-09-23T03:18:28.279Z,10.35
2022-09-23T03:20:57.337Z,10.73
2022-09-23T03:23:27.704Z,10.77
2022-09-23T03:25:56.126Z,10.51
2022-09-23T03:28:25.510Z,10.49
2022-09-23T03:30:53.415Z,10.59
2022-09-23T03:33:28.407Z,10.98
2022-09-23T03:36:15.514Z,10.72
2022-09-23T03:38:45.585Z,10.99
2022-09-23T03:41:16.655Z,10.87
2022-09-23T03:43:46.761Z,10.98
2022-09-23T03:46:28.602Z,10.79
2022-09-23T03:48:57.012Z,10.89
2022-09-23T03:51:25.014Z,10.95
2022-09-23T03:53:56.798Z,10.71
2022-09-23T03:56:28.978Z,10.71
2022-09-23T03:58:59.194Z,10.92
2022-09-23T04:01:27.225Z,10.78
2022-09-23T04:03:57.916Z,10.63
2022-09-23T04:06:25.996Z,10.58
2022-09-23T04:08:55.221Z,10.58
2022-09-23T04:11:23.129Z,10.08
2022-09-23T04:13:52.992Z,10.44
2022-09-23T04:16:21.091Z,10.26
2022-09-23T04:18:50.574Z,10.47
2022-09-23T04:21:18.263Z,10.49
2022-09-23T04:23:46.555Z,10.70
2022-09-23T04:26:16.334Z,10.29
2022-09-23T04:28:44.239Z,10.35
2022-09-23T04:31:11.808Z,10.49
2022-09-23T04:33:39.550Z,10.68
2022-09-23T04:36:10.019Z,10.83
2022-09-23T04:38:41.506Z,10.95
2022-09-23T04:41:12.004Z,11.04
2022-09-23T04:43:42.256Z,10.99
2022-09-23T04:46:14.196Z,10.84
2022-09-23T04:48:43.030Z,10.92
2022-09-23T04:51:11.206Z,10.77
2022-09-23T04:53:39.869Z,10.91
2022-09-23T04:56:09.581Z,10.94
2022-09-23T04:58:37.282Z,10.72
2022-09-23T05:01:14.286Z,10.57
2022-09-23T05:03:42.557Z,10.61
2022-09-23T05:06:11.114Z,10.58
2022-09-23T05:08:40.949Z,10.45
2022-09-23T05:11:09.076Z,10.31
2022-09-23T05:13:37.395Z,10.67
2022-09-23T05:16:09.040Z,10.54
2022-09-23T05:18:42.821Z,10.85
2022-09-23T05:21:13.412Z,10.67
2022-09-23T05:23:41.684Z,10.76
2022-09-23T05:26:10.423Z,10.59
2022-09-23T05:28:39.355Z,10.95
2022-09-23T05:31:08.139Z,11.08
2022-09-23T05:33:36.714Z,10.84
2022-09-23T05:36:09.664Z,10.94
2022-09-23T05:38:38.763Z,10.86
2022-09-23T05:41:07.544Z,10.85
2022-09-23T05:43:35.373Z,10.93
2022-09-23T05:46:07.767Z,10.99
2022-09-23T05:48:36.272Z,10.85
2022-09-23T05:51:12.850Z,10.82
2022-09-23T05:53:42.210Z,10.93
2022-09-23T05:56:11.249Z,10.86
2022-09-23T05:58:40.695Z,10.83
2022-09-23T06:01:12.565Z,10.69
2022-09-23T06:03:40.305Z,10.76
2022-09-23T06:06:13.090Z,10.80
2022-09-23T06:08:41.168Z,10.79
2022-09-23T06:11:09.182Z,11.06
2022-09-23T06:13:38.313Z,10.84
2022-09-23T06:16:09.197Z,11.06
2022-09-23T06:18:37.374Z,11.09
2022-09-23T06:21:07.954Z,11.23
2022-09-23T06:23:41.926Z,11.48
2022-09-23T06:26:10.542Z,10.93
2022-09-23T06:28:49.218Z,10.31
2022-09-23T06:31:19.374Z,11.24
2022-09-23T06:33:59.965Z,11.49
2022-09-23T06:36:42.573Z,11.62
2022-09-23T06:39:13.765Z,11.81
2022-09-23T06:41:43.379Z,11.54
2022-09-23T06:44:11.406Z,11.70
2022-09-23T06:46:39.236Z,11.90
2022-09-23T06:49:07.595Z,11.97
2022-09-23T06:51:35.619Z,12.33
2022-09-23T06:54:03.598Z,12.44
2022-09-23T06:56:38.524Z,12.64
2022-09-23T06:59:06.704Z,12.78
2022-09-23T07:01:34.929Z,13.22
2022-09-23T07:04:03.529Z,12.76
2022-09-23T07:06:31.398Z,11.52
2022-09-23T07:09:01.073Z,11.51
2022-09-23T07:11:30.734Z,13.13
2022-09-23T07:14:03.907Z,13.53
2022-09-23T07:16:32.890Z,13.84
2022-09-23T07:19:00.560Z,13.16
2022-09-23T07:21:29.303Z,13.74
2022-09-23T07:23:58.256Z,13.97
2022-09-23T07:26:26.143Z,13.93
2022-09-23T07:29:06.701Z,13.52
2022-09-23T07:31:39.772Z,13.92
2022-09-23T07:34:12.646Z,14.90
2022-09-23T07:36:41.403Z,14.51
2022-09-23T07:39:10.191Z,14.46
2022-09-23T07:41:44.232Z,14.74
2022-09-23T07:44:12.091Z,13.91
2022-09-23T07:46:41.461Z,14.63
2022-09-23T07:49:10.742Z,13.90
2022-09-23T07:51:41.186Z,14.76
2022-09-23T07:54:10.534Z,15.47
2022-09-23T07:56:38.605Z,15.99
2022-09-23T07:59:08.814Z,15.18
2022-09-23T08:01:37.261Z,15.99
2022-09-23T08:04:14.678Z,15.93
2022-09-23T08:06:43.344Z,15.55
2022-09-23T08:09:12.346Z,15.39
2022-09-23T08:11:42.237Z,15.30
2022-09-23T08:14:10.337Z,16.05
2022-09-23T08:16:38.104Z,15.95
2022-09-23T08:19:07.345Z,15.77
2022-09-23T08:21:35.022Z,16.33
2022-09-23T08:24:03.348Z,16.48
2022-09-23T08:26:34.266Z,16.84
2022-09-23T08:29:02.369Z,16.45
2022-09-23T08:31:32.153Z,15.97
2022-09-23T08:33:59.912Z,16.27
2022-09-23T08:36:30.845Z,17.20
2022-09-23T08:38:59.202Z,16.72
2022-09-23T08:41:29.671Z,16.43
2022-09-23T08:44:00.240Z,15.11
2022-09-23T08:46:28.485Z,16.58
2022-09-23T08:48:56.188Z,16.83
2022-09-23T08:51:25.542Z,16.95
2022-09-23T08:53:54.903Z,16.62
2022-09-23T08:56:23.706Z,17.72
2022-09-23T08:58:56.267Z,17.55
2022-09-23T09:01:24.644Z,17.15
2022-09-23T09:03:53.882Z,17.25
2022-09-23T09:06:22.395Z,17.80
2022-09-23T09:08:54.025Z,17.52
2022-09-23T09:11:23.633Z,17.96
2022-09-23T09:13:56.250Z,17.99
2022-09-23T09:16:55.450Z,18.26
2022-09-23T09:19:22.382Z,18.51
2022-09-23T09:21:51.920Z,18.18
2022-09-23T09:24:21.425Z,18.37
2022-09-23T09:26:50.737Z,18.47
2022-09-23T09:29:36.312Z,18.55
2022-09-23T09:32:10.358Z,18.52
2022-09-23T09:34:41.711Z,18.76
2022-09-23T09:37:11.513Z,18.39
2022-09-23T09:39:39.522Z,17.89
2022-09-23T09:42:11.327Z,18.70
2022-09-23T09:44:40.314Z,18.89
2022-09-23T09:47:18.883Z,19.21
2022-09-23T09:49:47.089Z,19.52
2022-09-23T09:52:16.809Z,19.19
2022-09-23T09:54:44.778Z,18.75
2022-09-23T09:57:17.569Z,19.40
2022-09-23T09:59:45.268Z,19.62
2022-09-23T10:02:15.366Z,19.54
2022-09-23T10:04:44.198Z,19.58
2022-09-23T10:07:13.321Z,19.56
2022-09-23T10:09:43.153Z,19.83
2022-09-23T10:12:18.570Z,19.78
2022-09-23T10:14:50.572Z,19.70
2022-09-23T10:17:20.788Z,19.39
2022-09-23T10:19:48.822Z,18.41
2022-09-23T10:22:18.702Z,19.75
2022-09-23T10:24:48.889Z,19.85
2022-09-23T10:27:18.551Z,19.96
2022-09-23T10:29:50.249Z,19.57
2022-09-23T10:32:25.767Z,20.04
2022-09-23T10:34:54.787Z,20.15
2022-09-23T10:37:24.636Z,20.15
2022-09-23T10:40:09.828Z,19.68
2022-09-23T10:42:59.613Z,19.40
2022-09-23T10:45:45.099Z,19.30
2022-09-23T10:48:15.136Z,19.13
2022-09-23T10:50:43.315Z,19.18
2022-09-23T10:53:16.687Z,19.50
2022-09-23T10:55:46.802Z,19.51
2022-09-23T10:58:25.137Z,19.62
2022-09-23T11:00:56.132Z,20.00
2022-09-23T11:03:45.908Z,19.66
2022-09-23T11:06:14.831Z,20.18
2022-09-23T11:08:58.863Z,20.25
2022-09-23T11:11:31.609Z,20.48
2022-09-23T11:14:09.438Z,20.83
2022-09-23T11:16:41.456Z,20.92
2022-09-23T11:19:18.617Z,20.22
2022-09-23T11:21:53.736Z,19.88
2022-09-23T11:24:36.354Z,20.45
2022-09-23T11:27:07.125Z,20.39
2022-09-23T11:29:43.563Z,21.17
2022-09-23T11:32:21.181Z,21.87
2022-09-23T11:34:54.872Z,22.04
2022-09-23T11:37:23.924Z,21.24
2022-09-23T11:39:53.370Z,20.79
2022-09-23T11:42:21.526Z,20.91
2022-09-23T11:44:52.667Z,21.31
2022-09-23T11:47:22.495Z,21.66
2022-09-23T11:49:54.318Z,21.87
2022-09-23T11:52:22.811Z,22.15
2022-09-23T11:54:51.837Z,21.86
2022-09-23T11:57:22.060Z,21.07
2022-09-23T11:59:51.760Z,21.28
2022-09-23T12:02:25.629Z,21.27
2022-09-23T12:04:58.769Z,20.59
2022-09-23T12:07:28.822Z,21.01
2022-09-23T12:09:58.731Z,21.41
2022-09-23T12:12:28.361Z,21.75
2022-09-23T12:14:59.092Z,21.74
2022-09-23T12:17:31.289Z,21.20
2022-09-23T12:20:05.680Z,21.46
2022-09-23T12:22:37.749Z,20.87
2022-09-23T12:25:10.669Z,20.82
2022-09-23T12:27:48.371Z,21.62
2022-09-23T12:30:18.168Z,21.43
2022-09-23T12:32:46.528Z,21.64
2022-09-23T12:35:23.919Z,21.77
2022-09-23T12:37:54.349Z,20.77
2022-09-23T12:40:25.022Z,21.83
2022-09-23T12:42:52.741Z,21.70
2022-09-23T12:45:42.041Z,21.19
2022-09-23T12:48:29.067Z,20.95
2022-09-23T12:50:58.437Z,21.37
2022-09-23T12:53:54.399Z,21.44
2022-09-23T12:56:23.432Z,21.81
2022-09-23T12:59:12.128Z,21.78
2022-09-23T13:01:41.673Z,20.77
2022-09-23T13:04:45.928Z,21.76
2022-09-23T13:07:16.746Z,21.77
2022-09-23T13:09:44.828Z,20.78
2022-09-23T13:12:15.504Z,22.08
2022-09-23T13:14:44.121Z,22.17
2022-09-23T13:17:23.543Z,22.87
2022-09-23T13:19:58.670Z,22.66
2022-09-23T13:22:42.498Z,21.56
2022-09-23T13:25:17.694Z,21.26
2022-09-23T13:27:45.894Z,21.43
2022-09-23T13:30:23.609Z,21.64
2022-09-23T13:33:02.247Z,21.74
2022-09-23T13:35:31.849Z,21.85
2022-09-23T13:37:59.695Z,21.82
2022-09-23T13:40:28.612Z,21.27
2022-09-23T13:42:58.525Z,21.45
2022-09-23T13:45:26.814Z,21.71
2022-09-23T13:48:00.096Z,22.08
2022-09-23T13:50:34.139Z,22.10
2022-09-23T13:53:04.479Z,22.30
2022-09-23T13:55:32.811Z,22.23
2022-09-23T13:58:02.753Z,22.01
2022-09-23T14:00:35.317Z,21.90
2022-09-23T14:03:04.452Z,21.77
2022-09-23T14:05:36.101Z,23.20
2022-09-23T14:08:04.094Z,23.11
2022-09-23T14:10:32.509Z,22.67
2022-09-23T14:13:00.329Z,22.05
2022-09-23T14:15:28.317Z,22.59
2022-09-23T14:18:06.656Z,22.41
2022-09-23T14:20:36.289Z,22.64
2022-09-23T14:23:04.533Z,22.51
2022-09-23T14:25:33.131Z,22.09
2022-09-23T14:28:00.763Z,22.11
2022-09-23T14:30:29.901Z,22.50
2022-09-23T14:33:02.567Z,22.17
2022-09-23T14:35:40.693Z,21.85
2022-09-23T14:38:25.734Z,21.79
2022-09-23T14:41:14.943Z,21.77
2022-09-23T14:43:47.350Z,21.77
2022-09-23T14:46:18.602Z,21.41
2022-09-23T14:48:52.039Z,20.02
2022-09-23T14:51:21.299Z,21.42
2022-09-23T14:53:49.094Z,21.83
2022-09-23T14:56:25.344Z,21.76
2022-09-23T14:58:53.753Z,21.50
2022-09-23T15:01:28.638Z,21.24
2022-09-23T15:03:57.244Z,21.41
2022-09-23T15:06:26.610Z,21.52
2022-09-23T15:08:54.313Z,21.65
2022-09-23T15:11:22.587Z,20.78
2022-09-23T15:13:50.534Z,21.20
2022-09-23T15:16:18.509Z,21.17
2022-09-23T15:18:46.545Z,21.49
2022-09-23T15:21:14.632Z,21.68
2022-09-23T15:23:48.242Z,21.29
2022-09-23T15:26:17.911Z,21.13
2022-09-23T15:28:46.806Z,21.12
2022-09-23T15:31:15.905Z,20.95
2022-09-23T15:33:44.730Z,20.93
2022-09-23T15:36:12.808Z,20.99
2022-09-23T15:38:45.637Z,21.05
2022-09-23T15:41:15.265Z,20.89
2022-09-23T15:43:43.233Z,21.41
2022-09-23T15:46:13.699Z,20.98
2022-09-23T15:48:42.415Z,20.84
2022-09-23T15:51:10.294Z,20.84
2022-09-23T15:53:39.852Z,20.76
2022-09-23T15:56:07.458Z,20.63
2022-09-23T15:58:37.149Z,20.41
2022-09-23T16:01:05.043Z,20.51
2022-09-23T16:03:36.588Z,20.62
2022-09-23T16:06:06.200Z,20.69
2022-09-23T16:08:33.883Z,20.40
2022-09-23T16:11:01.569Z,20.24
2022-09-23T16:13:29.094Z,19.91
2022-09-23T16:15:59.522Z,19.86
2022-09-23T16:18:27.213Z,20.11
2022-09-23T16:20:58.900Z,20.36
2022-09-23T16:23:35.436Z,20.29
2022-09-23T16:26:08.406Z,20.34
2022-09-23T16:28:37.078Z,20.22
2022-09-23T16:31:06.520Z,20.21
2022-09-23T16:33:34.505Z,20.17
2022-09-23T16:36:02.533Z,20.21
2022-09-23T16:38:31.707Z,20.12
2022-09-23T16:41:00.757Z,19.99
2022-09-23T16:43:29.119Z,20.00
2022-09-23T16:45:59.157Z,19.87
2022-09-23T16:48:28.301Z,19.77
2022-09-23T16:50:58.892Z,19.77
2022-09-23T16:53:26.454Z,19.80
2022-09-23T16:55:54.410Z,19.85
2022-09-23T16:58:25.789Z,19.87
2022-09-23T17:01:15.700Z,19.87
2022-09-23T17:03:45.008Z,20.10
2022-09-23T17:06:13.435Z,20.03
2022-09-23T17:08:42.118Z,20.07
2022-09-23T17:11:10.653Z,19.93
2022-09-23T17:13:41.216Z,20.07
2022-09-23T17:16:08.985Z,19.88
2022-09-23T17:18:38.880Z,19.67
2022-09-23T17:21:09.084Z,19.52
2022-09-23T17:23:37.029Z,19.59
2022-09-23T17:26:09.702Z,19.71
2022-09-23T17:28:37.498Z,19.72
2022-09-23T17:31:09.229Z,19.45
2022-09-23T17:33:39.084Z,19.21
2022-09-23T17:36:11.301Z,19.22
2022-09-23T17:38:39.334Z,19.02
2022-09-23T17:41:09.477Z,19.21
2022-09-23T17:43:39.379Z,19.27
2022-09-23T17:46:07.984Z,19.27
2022-09-23T17:48:39.354Z,18.88
2022-09-23T17:51:11.083Z,18.97
2022-09-23T17:53:40.144Z,19.00
2022-09-23T17:56:08.468Z,18.99
2022-09-23T17:58:37.197Z,18.89
2022-09-23T18:01:08.400Z,18.88
2022-09-23T18:03:36.387Z,18.69
2022-09-23T18:06:21.880Z,18.85
2022-09-23T18:08:50.449Z,18.73
2022-09-23T18:11:19.216Z,18.87
2022-09-23T18:13:54.063Z,18.92
2022-09-23T18:16:23.225Z,18.74
2022-09-23T18:18:51.704Z,18.81
2022-09-23T18:21:20.928Z,18.82
2022-09-23T18:23:48.561Z,18.80
2022-09-23T18:26:16.565Z,18.59
2022-09-23T18:28:45.673Z,18.59
2022-09-23T18:31:13.494Z,18.38
2022-09-23T18:33:41.256Z,18.63
2022-09-23T18:36:09.317Z,18.68
2022-09-23T18:38:40.707Z,18.71
2022-09-23T18:41:13.892Z,18.73
2022-09-23T18:43:46.336Z,18.74
2022-09-23T18:46:19.661Z,18.72
2022-09-23T18:49:04.683Z,18.79
2022-09-23T18:51:38.787Z,18.71
2022-09-23T18:54:11.526Z,18.73
2022-09-23T18:56:41.048Z,18.55
2022-09-23T18:59:09.914Z,17.98
2022-09-23T19:01:37.972Z,16.91
2022-09-23T19:04:06.847Z,18.47
2022-09-23T19:06:35.338Z,18.26
2022-09-23T19:09:05.400Z,18.22
2022-09-23T19:11:36.246Z,18.28
2022-09-23T19:14:04.713Z,18.32
2022-09-23T19:16:34.838Z,18.29
2022-09-23T19:19:02.686Z,17.67
2022-09-23T19:21:30.741Z,17.45
2022-09-23T19:24:04.355Z,17.43
2022-09-23T19:26:32.777Z,17.75
2022-09-23T19:29:02.128Z,17.50
2022-09-23T19:31:30.366Z,17.91
2022-09-23T19:34:02.845Z,18.08
2022-09-23T19:36:31.145Z,18.10
2022-09-23T19:38:59.283Z,17.95
2022-09-23T19:41:28.147Z,17.77
2022-09-23T19:44:03.358Z,18.12
2022-09-23T19:46:33.251Z,18.14
2022-09-23T19:49:01.853Z,17.98
2022-09-23T19:51:29.985Z,18.01
2022-09-23T19:53:59.424Z,17.95
2022-09-23T19:56:29.566Z,17.92
2022-09-23T19:58:59.619Z,17.65
2022-09-23T20:01:27.839Z,17.69
2022-09-23T20:03:58.671Z,17.70
2022-09-23T20:06:26.324Z,17.43
2022-09-23T20:08:54.319Z,17.40
2022-09-23T20:11:28.093Z,17.46
2022-09-23T20:14:01.093Z,17.58
2022-09-23T20:16:32.788Z,17.04
2022-09-23T20:19:04.090Z,16.92
2022-09-23T20:21:31.808Z,16.47
2022-09-23T20:24:00.782Z,16.95
2022-09-23T20:26:46.062Z,16.81
2022-09-23T20:29:15.934Z,16.96
2022-09-23T20:31:43.618Z,17.05
2022-09-23T20:34:12.878Z,16.74
2022-09-23T20:36:41.636Z,17.20
2022-09-23T20:39:13.086Z,17.03
2022-09-23T20:41:40.745Z,17.16
2022-09-23T20:44:12.453Z,17.19
2022-09-23T20:46:45.283Z,17.34
2022-09-23T20:49:17.533Z,17.37
2022-09-23T20:51:48.393Z,17.27
2022-09-23T20:54:16.446Z,16.97
2022-09-23T20:56:46.908Z,16.54
2022-09-23T20:59:18.400Z,16.31
2022-09-23T21:01:46.569Z,16.64
2022-09-23T21:04:17.909Z,16.96
2022-09-23T21:06:47.206Z,17.14
2022-09-23T21:09:20.180Z,16.71
2022-09-23T21:11:50.601Z,16.28
2022-09-23T21:14:19.539Z,16.21
2022-09-23T21:16:48.431Z,16.61
2022-09-23T21:19:15.948Z,16.84
2022-09-23T21:21:46.469Z,16.54
2022-09-23T21:24:45.627Z,16.62
2022-09-23T21:27:04.637Z,16.25
2022-09-23T21:29:33.851Z,15.95
2022-09-23T21:32:06.240Z,16.22
2022-09-23T21:34:34.264Z,16.21
2022-09-23T21:37:02.023Z,16.51
2022-09-23T21:39:33.489Z,16.29
2022-09-23T21:42:01.547Z,16.33
2022-09-23T21:44:29.453Z,16.15
2022-09-23T21:46:59.955Z,16.62
2022-09-23T21:49:29.689Z,16.53
2022-09-23T21:52:00.691Z,16.18
2022-09-23T21:54:29.860Z,15.80
2022-09-23T21:57:00.516Z,15.62
2022-09-23T21:59:28.503Z,15.55
2022-09-23T22:01:56.023Z,15.19
2022-09-23T22:04:23.643Z,15.63
2022-09-23T22:06:51.347Z,16.31
2022-09-23T22:09:19.896Z,16.18
2022-09-23T22:12:08.558Z,16.02
2022-09-23T22:14:42.203Z,15.70
2022-09-23T22:17:12.235Z,15.80
2022-09-23T22:19:46.602Z,16.30
2022-09-23T22:22:15.869Z,15.90
2022-09-23T22:24:43.756Z,16.03
2022-09-23T22:27:12.136Z,15.96
2022-09-23T22:29:58.649Z,15.68
2022-09-23T22:32:51.541Z,15.69
2022-09-23T22:35:32.646Z,15.13
2022-09-23T22:38:01.215Z,15.73
2022-09-23T22:40:28.845Z,16.10
2022-09-23T22:42:57.017Z,15.59
2022-09-23T22:45:26.172Z,15.19
2022-09-23T22:47:54.154Z,15.10
2022-09-23T22:50:21.735Z,15.26
2022-09-23T22:52:49.764Z,15.21
2022-09-23T22:55:17.387Z,15.07
2022-09-23T22:57:46.206Z,15.38
2022-09-23T23:00:14.325Z,15.45
2022-09-23T23:02:44.300Z,15.62
2022-09-23T23:05:12.322Z,15.46
2022-09-23T23:07:40.539Z,15.51
2022-09-23T23:10:22.978Z,14.83
2022-09-23T23:12:56.163Z,15.25
2022-09-23T23:15:25.833Z,15.19
2022-09-23T23:17:59.257Z,14.98
2022-09-23T23:20:29.779Z,15.43
2022-09-23T23:22:57.378Z,15.56
2022-09-23T23:25:27.068Z,15.08
2022-09-23T23:27:56.965Z,15.08
2022-09-23T23:30:27.096Z,14.92
2022-09-23T23:32:56.502Z,14.79
2022-09-23T23:35:24.089Z,15.06
2022-09-23T23:37:52.129Z,15.18
2022-09-23T23:40:23.695Z,15.51
2022-09-23T23:42:51.629Z,15.18
2022-09-23T23:45:19.391Z,15.02
2022-09-23T23:47:46.917Z,14.58
2022-09-23T23:50:16.459Z,14.61
2022-09-23T23:52:44.038Z,13.11
2022-09-23T23:55:11.645Z,15.05
2022-09-23T23:57:39.593Z,14.95
